Etusivu
METAR-TAF:

METAR-TAF

Lentoasemat :

Natashquan, Quebec, Kanada

Leveyspiiri: 50-11N, Pituuspiiri: 061-49W, korkeus merenpinnasta: 7 m

Tämänhetkinen sää

Tämä raportti tehtiin 36 minuuttia sitten, kello 21.00 UTC
Tuuli 6 kn etelästä/lounaasta
Lämpötila 14°C
Kosteus 36%
Ilmanpaine 1017 hPa
Näkyvyys: 14.5 km
Hajanaisia pilviä 20000 ft:n korkeudessa

METAR: CYNA 252100Z AUTO 20006KT 9SM SCT200 14/M01 A3003 RMK SLP172

Aika: 17:36 (21:36 UTC)

Sääennuste

Tämä raportti tehtiin 1 tunti ja 57 minuuttia sitten, kello 19.39 UTC
Ennuste voimassa 25. päivästä klo 20 UTC - 26. päivään klo 08 UTC
Tuuli 10 kn etelästä
Näkyvyys: 10 km
Hajanaisia pilviä 24000 ft:n korkeudessa
Tulossa
25. päivästä klo 22 UTC - 25. päivään klo 24 UTC
Tuuli 3 kn eri suunnista

TAF: CYNA 251939Z 2520/2608 19010KT P6SM SCT240 BECMG 2522/2524 VRB03KT RMK FCST BASED ON AUTO OBS. NXT FCST BY 260200Z

Säähavainnot ja -ennusteet yli 4000 lentoasemalta (METAR- ja TAF-raportit).

Käytössä olevat sääasemat on merkitty karttaan keltaisilla ja punaisilla pisteillä.

Aseta hiiri pisteen päälle nähdäksesi sääaseman nimen.

Klikkaa sitten nähdäksesi säähavainnot ja -ennusteet.

Kartan vaihtaminen: klikkaa mustalla rastilla varustettuja vihreitä pisteitä, niin voit zoomata sisään; viivalla varustettua vihreää pistettä, niin voit zoomata ulos tai vihreitä nuolia, niin pääset viereisille kartoille.


METAR-TAF: